METAR Data
IDs: Format: Raw Decoded Include TAF

Data at: 2258 UTC 10 May 2021

K0CO 102255Z AUTO 27020G25KT 10SM SCT031 SCT043 SCT090 M06/M13 A3009 RMK AO2
K0CO 102235Z AUTO 27019G32KT 7SM -SN SCT021 SCT030 SCT037 M07/M14 A3009 RMK AO2
K0CO 102215Z AUTO 27026G32KT 7SM -SN SCT018 SCT060 BKN085 M06/M13 A3008 RMK AO2
K0CO 102155Z AUTO 26023G36KT 5SM HZ SCT018 BKN050 OVC065 M07/M14 A3007 RMK AO2
K0CO 102135Z AUTO 26023G38KT 5SM HZ SCT029 BKN044 OVC055 M07/M14 A3007 RMK AO2
K0CO 102115Z AUTO 25019G43KT 4SM HZ SCT004 BKN026 OVC038 M07/M14 A3007 RMK AO2
K0CO 102055Z AUTO 25024G35KT 3/4SM -SN BKN003 OVC008 M07/M13 A3007 RMK AO2
K0CO 102035Z AUTO 27023G38KT 1SM -SN BKN003 OVC009 M06/M13 A3007 RMK AO2
K0CO 102015Z AUTO 27014G40KT 4SM HZ BKN017 OVC023 M07/M14 A3008 RMK AO2
K0CO 101955Z AUTO 27020G36KT 4SM HZ SCT003 BKN016 OVC024 M06/M13 A3008 RMK AO2
K0CO 101935Z AUTO 25012G20KT 191V261 3/4SM -SN OVC001 M06/M13 A3008 RMK AO2
K0CO 101915Z AUTO 26008KT 1/4SM SN OVC003 M06/M13 A3008 RMK AO2
K0CO 101855Z AUTO 28012G15KT 1/4SM SN OVC003 M06/M13 A3008 RMK AO2
K0CO 101835Z AUTO 32016G23KT 1/4SM -SN OVC003 M06/M13 A3008 RMK AO2
K0CO 101815Z AUTO 28017G27KT M1/4SM SN OVC003 M06/M13 A3008 RMK AO2
K0CO 101755Z AUTO 31011G22KT 271V351 M1/4SM +SN OVC001 M07/M13 A3008 RMK AO2 P0004
K0CO 101735Z AUTO 34011G20KT M1/4SM +SN OVC001 M06/M13 A3008 RMK AO2 P0001
K0CO 101715Z AUTO 29006G17KT M1/4SM +SN OVC001 M07/M13 A3008 RMK AO2 P0001
K0CO 101655Z AUTO 29006G15KT 1/4SM HZ OVC003 M06/M13 A3007 RMK AO2
K0CO 101635Z AUTO 27007KT 221V291 3/4SM -SN OVC003 M07/M14 A3007 RMK AO2
K0CO 101615Z AUTO 26007KT 241V301 1/4SM SN OVC003 M07/M14 A3008 RMK AO2
K0CO 101555Z AUTO 1/4SM -SN OVC003 M07/M14 A3008 RMK AO2 P0001
K0CO 101535Z AUTO 1/4SM SN OVC003 M07/M15 A3008 RMK AO2 P0001
K0CO 101515Z AUTO 1/4SM +SN OVC001 M07/M15 A3008 RMK AO2 P0001
K0CO 101455Z AUTO 33008KT 1/4SM +SN OVC001 M07/M15 A3008 RMK AO2 P0007
K0CO 101435Z AUTO 34007KT 301V001 M1/4SM +SN OVC001 M07/M15 A3008 RMK AO2 P0005
K0CO 101415Z AUTO 04003KT M1/4SM +SN OVC001 M07/M14 A3009 RMK AO2
K0CO 101355Z AUTO 27006KT M1/4SM +SN OVC001 M07/M14 A3008 RMK AO2 P0002
K0CO 101335Z AUTO 21003KT 1 1/4SM -SN OVC008 M07/M15 A3008 RMK AO2 P0001
K0CO 101315Z AUTO 23005KT 1SM -SN OVC003 M07/M15 A3008 RMK AO2
K0CO 101255Z AUTO 17015KT 1/4SM SN OVC003 M07/M15 A3008 RMK AO2
K0CO 101235Z AUTO 18012G17KT 1/2SM +SN BKN003 OVC009 M07/M15 A3008 RMK AO2 VIS 1/4V2 1/2
K0CO 101215Z AUTO 20007KT 171V231 1/2SM -SN OVC003 M07/M15 A3008 RMK AO2
K0CO 101155Z AUTO 21007G16KT 181V241 3/4SM SN OVC003 M08/M15 A3009 RMK AO2
K0CO 101135Z AUTO 19009G15KT M1/4SM HZ OVC001 M08/M15 A3009 RMK AO2
K0CO 101115Z AUTO 18011G18KT M1/4SM HZ OVC001 M08/M15 A3009 RMK AO2
K0CO 101055Z AUTO 21010G20KT 1/4SM HZ OVC001 M08/M15 A3009 RMK AO2
K0CO 101035Z AUTO 17016G19KT 1/4SM HZ OVC001 M08/M15 A3010 RMK AO2
K0CO 101015Z AUTO 18014G21KT 1/2SM HZ OVC001 M08/M15 A3010 RMK AO2 VIS 1/4V5
K0CO 100955Z AUTO 17017G20KT M1/4SM HZ OVC001 M08/M15 A3010 RMK AO2
K0CO 100935Z AUTO 18015G20KT 161V221 M1/4SM HZ OVC001 M07/M15 A3011 RMK AO2
K0CO 100915Z AUTO 17014G20KT M1/4SM HZ OVC001 M07/M15 A3011 RMK AO2
K0CO 100855Z AUTO 16014G19KT M1/4SM HZ OVC001 M07/M15 A3011 RMK AO2
K0CO 100835Z AUTO 18016G26KT M1/4SM HZ OVC001 M07/M15 A3011 RMK AO2
K0CO 100815Z AUTO 17012G20KT M1/4SM HZ OVC001 M07/M15 A3011 RMK AO2
K0CO 100755Z AUTO 17016G19KT M1/4SM HZ OVC001 M07/M15 A3012 RMK AO2
K0CO 100735Z AUTO 17017KT M1/4SM HZ OVC001 M07/M15 A3013 RMK AO2
K0CO 100715Z AUTO 17011G17KT 1/4SM HZ OVC001 M07/M15 A3014 RMK AO2
K0CO 100655Z AUTO 19012G18KT M1/4SM HZ OVC001 M07/M15 A3014 RMK AO2
K0CO 100635Z AUTO 18015KT M1/4SM HZ OVC001 M07/M15 A3014 RMK AO2
K0CO 100615Z AUTO 22004KT 1SM HZ SCT001 BKN019 OVC075 M08/M15 A3014 RMK AO2
K0CO 100555Z AUTO 21005KT 3SM -SN SCT013 BKN019 OVC031 M07/M15 A3014 RMK AO2
K0CO 100535Z AUTO 19005KT 2 1/2SM -SN OVC013 M07/M15 A3014 RMK AO2
K0CO 100515Z AUTO 21004KT 3SM -SN BKN013 BKN020 OVC050 M07/M15 A3015 RMK AO2
K0CO 100455Z AUTO 21004KT 10SM SCT036 BKN055 OVC065 M07/M15 A3015 RMK AO2
K0CO 100435Z AUTO 19005KT 10SM SCT004 SCT037 OVC070 M07/M15 A3015 RMK AO2
K0CO 100415Z AUTO 24006KT 1/4SM +SN OVC006 M08/M15 A3015 RMK AO2
K0CO 100355Z AUTO 22007KT 1/4SM +SN OVC001 M08/M15 A3016 RMK AO2 P0002
K0CO 100335Z AUTO 34006KT M1/4SM +SN OVC001 M07/M15 A3015 RMK AO2 P0001
K0CO 100315Z AUTO 33006KT 1/2SM +SN OVC003 M07/M15 A3015 RMK AO2
K0CO 100255Z AUTO 31010KT 3/4SM SN OVC003 M07/M15 A3014 RMK AO2 P0005
K0CO 100235Z AUTO 33007KT 1/4SM +SN OVC001 M07/M15 A3014 RMK AO2 P0003
K0CO 100215Z AUTO 28004KT 1/4SM +SN OVC001 M07/M15 A3014 RMK AO2 P0003
K0CO 100155Z AUTO 34006KT M1/4SM +SN OVC001 M07/M14 A3014 RMK AO2
K0CO 100135Z AUTO 33005KT M1/4SM +SN OVC001 M07/M15 A3014 RMK AO2
K0CO 100115Z AUTO 34009G19KT 301V001 M1/4SM +SN OVC001 M07/M15 A3013 RMK AO2
K0CO 100055Z AUTO 32008G15KT 281V021 M1/4SM +SN BKN001 OVC009 M07/M15 A3012 RMK AO2
K0CO 100035Z AUTO 29012G22KT 1 1/2SM -SN SCT007 BKN013 OVC018 M06/M13 A3012 RMK AO2
K0CO 100015Z AUTO 34013G22KT 10SM SCT014 BKN020 OVC025 M07/M14 A3012 RMK AO2
K0CO 092355Z AUTO 31016G23KT 2SM -SN SCT010 BKN014 OVC021 M06/M13 A3012 RMK AO2
K0CO 092335Z AUTO 28017G30KT 1 1/2SM -SN BKN010 OVC018 M06/M13 A3012 RMK AO2
K0CO 092315Z AUTO 28017G27KT 5SM -SN SCT009 BKN019 OVC023 M06/M13 A3011 RMK AO2
K0CO 092255Z AUTO 27015G27KT 7SM SCT015 BKN021 OVC033 M06/M12 A3011 RMK AO2
K0CO 092235Z AUTO 27026G36KT 10SM SCT024 BKN032 OVC040 M05/M12 A3010 RMK AO2
K0CO 092215Z AUTO 28015G24KT 10SM SCT021 SCT026 OVC033 M05/M12 A3011 RMK AO2
K0CO 092155Z AUTO 29015G20KT 10SM SCT016 SCT023 OVC033 M05/M11 A3011 RMK AO2
K0CO 092135Z AUTO 28016G30KT 5SM HZ SCT016 BKN029 OVC035 M05/M12 A3011 RMK AO2
K0CO 092115Z AUTO 28018G23KT 3SM -SN SCT009 BKN018 OVC028 M05/M12 A3011 RMK AO2
K0CO 092055Z AUTO 27014G23KT 5SM -SN BKN020 OVC028 M05/M12 A3011 RMK AO2
K0CO 092035Z AUTO 28017G23KT 10SM SCT019 OVC026 M05/M12 A3011 RMK AO2
K0CO 092015Z AUTO 28026G30KT 10SM BKN026 OVC032 M05/M12 A3010 RMK AO2
K0CO 091955Z AUTO 26016G26KT 10SM SCT023 SCT029 OVC035 M05/M12 A3011 RMK AO2
K0CO 091935Z AUTO 27021G33KT 7SM SCT025 BKN035 OVC042 M05/M12 A3011 RMK AO2
K0CO 091915Z AUTO 26008G24KT 10SM SCT027 BKN038 OVC044 M05/M12 A3012 RMK AO2
K0CO 091855Z AUTO 26022G36KT 10SM SCT026 SCT033 OVC041 M05/M11 A3012 RMK AO2
K0CO 091835Z AUTO 26021G37KT 10SM SCT030 BKN041 OVC047 M05/M12 A3012 RMK AO2
K0CO 091815Z AUTO 27018G33KT 10SM SCT034 SCT041 BKN049 M04/M11 A3013 RMK AO2
K0CO 091755Z AUTO 27020G35KT 10SM SCT036 BKN049 OVC055 M05/M12 A3012 RMK AO2
K0CO 091735Z AUTO 27015G32KT 10SM SCT033 SCT044 OVC055 M04/M11 A3012 RMK AO2
K0CO 091715Z AUTO 25019G27KT 10SM SCT042 BKN048 OVC060 M04/M11 A3012 RMK AO2
K0CO 091655Z AUTO 26015G26KT 10SM SCT044 SCT050 BKN060 M05/M12 A3013 RMK AO2
K0CO 091635Z AUTO 27017G28KT 10SM SCT055 SCT090 M06/M13 A3012 RMK AO2
K0CO 091615Z AUTO 29019G25KT 10SM SCT060 SCT075 M06/M13 A3012 RMK AO2
K0CO 091555Z AUTO 28014G23KT 10SM SCT070 M06/M13 A3012 RMK AO2
K0CO 091535Z AUTO 27009G15KT 10SM CLR M06/M13 A3012 RMK AO2
K0CO 091515Z AUTO 25008KT 10SM CLR M07/M14 A3013 RMK AO2
K0CO 091455Z AUTO 27010KT 10SM CLR M07/M15 A3013 RMK AO2
K0CO 091435Z AUTO 27009KT 10SM CLR M08/M15 A3013 RMK AO2
K0CO 091415Z AUTO 26011KT 10SM CLR M08/M16 A3013 RMK AO2
K0CO 091355Z AUTO 26009KT 10SM CLR M09/M16 A3013 RMK AO2
K0CO 091335Z AUTO 26006KT 10SM CLR M10/M17 A3013 RMK AO2
K0CO 091315Z AUTO 29004KT 10SM CLR M10/M17 A3012 RMK AO2
K0CO 091255Z AUTO 27005KT 10SM CLR M10/M17 A3012 RMK AO2
K0CO 091235Z AUTO 33005KT 10SM SCT120 M10/M17 A3011 RMK AO2
K0CO 091215Z AUTO 33011KT 10SM CLR M10/M17 A3011 RMK AO2
K0CO 091155Z AUTO 33005KT 10SM CLR M10/M17 A3012 RMK AO2
K0CO 091135Z AUTO 34007KT 10SM CLR M10/M17 A3011 RMK AO2
K0CO 091115Z AUTO 32005KT 10SM CLR M09/M16 A3011 RMK AO2